Delta Virtual Airport Information Service

Syracuse Hancock International Airport

ICAO: KSYR Country: United States
Latitude: 43.1112 Longitude: -76.1063
Latest Arrival : JBU6109 (D) (KBOS-KSYR) Latest Departure : AAY1121 (1) (KSYR-KMYR)


WX CaptureLIVE
Data provided by noaa.gov | Fetched at 06:47:48

METAR : KSYR 271054Z 18004KT 8SM -SN FEW032 BKN050 OVC090 M02/M05 A2996 RMK AO2 SLP146 P0000 T10221050 $

TAF : KSYR 271054Z 18004KT 8SM -SN FEW032 BKN050 OVC090 M02/M05 A2996 RMK AO2 SLP146 P0000 T10221050 $


Runway Data for KSYR
Data provided by openaviationdata.com

Runway ID Mag Var Hdg Length Elevation Surface ILS Freq ILS Id ILS Slope
10 -13 100° 8988 ft 421 ft Asphalt 109.9 IMRZ 3
15 -13 146° 7494 ft 421 ft Asphalt -- -- --
28 -13 280° 8988 ft 421 ft Asphalt 109.9 ISYR 3
33 -13 326° 7494 ft 421 ft Asphalt -- -- --

Syracuse Hancock International Airport, United States
Use only for reference purposes



Not for navigational purposes.